Time;durP1;ratioP1;P1;durP2;ratioP2;P2;SDS_P1;SDS_P2;PMS_P1;PMS_P2;Temp;Humidity;BMP_temperature;BMP_pressure;BME280_temperature;BME280_humidity;BME280_pressure;Samples;Min_cycle;Max_cycle;Signal;HPM_P1;HPM_P2
2023/10/10 00:00:05;;;;;;;21.17;13.00;;;17.80;99.90;;;;;;4176298;28;20116;-68
2023/10/10 00:02:18;;;;;;;21.27;12.68;;;17.80;99.90;;;;;;4174303;28;20095;-67
2023/10/10 00:04:21;;;;;;;18.35;11.70;;;17.70;99.90;;;;;;4173196;28;20061;-68
2023/10/10 00:06:24;;;;;;;18.55;11.85;;;17.80;99.90;;;;;;4172919;28;20067;-67
2023/10/10 00:08:44;;;;;;;20.48;12.38;;;17.80;99.90;;;;;;4175753;28;20128;-67
2023/10/10 00:10:49;;;;;;;21.35;12.80;;;17.70;99.90;;;;;;4169696;28;20120;-68
2023/10/10 00:12:49;;;;;;;17.23;12.45;;;17.80;99.90;;;;;;4174762;28;20423;-68
2023/10/10 00:14:50;;;;;;;21.27;12.82;;;17.70;99.90;;;;;;4171064;28;20053;-68
2023/10/10 00:16:54;;;;;;;22.13;14.10;;;17.70;99.90;;;;;;4175543;28;20500;-68
2023/10/10 00:18:55;;;;;;;23.60;13.50;;;17.70;99.90;;;;;;4172807;28;20039;-68
2023/10/10 00:21:20;;;;;;;24.63;14.10;;;17.70;99.90;;;;;;4170477;28;20489;-68
2023/10/10 00:23:22;;;;;;;20.63;12.15;;;17.60;99.90;;;;;;4173408;28;20495;-67
2023/10/10 00:25:28;;;;;;;18.65;13.30;;;17.60;99.90;;;;;;4174762;28;20064;-67
2023/10/10 00:27:30;;;;;;;21.25;13.73;;;17.60;99.90;;;;;;4175678;28;20068;-67
2023/10/10 00:29:32;;;;;;;18.20;12.00;;;17.60;99.90;;;;;;4175953;28;20061;-68
2023/10/10 00:31:33;;;;;;;17.25;12.18;;;17.60;99.90;;;;;;4173990;28;20128;-60
2023/10/10 00:33:34;;;;;;;20.38;12.68;;;17.60;99.90;;;;;;4175257;28;20041;-60
2023/10/10 00:35:38;;;;;;;21.95;13.77;;;17.60;99.90;;;;;;4175223;28;20068;-60
2023/10/10 00:37:39;;;;;;;19.67;13.10;;;17.60;99.90;;;;;;4158313;28;20417;-60
2023/10/10 00:39:39;;;;;;;18.45;12.65;;;17.60;99.90;;;;;;4175467;28;20060;-60
2023/10/10 00:43:50;;;;;;;18.80;12.90;;;17.60;99.90;;;;;;4173553;28;20037;-60
2023/10/10 00:45:57;;;;;;;20.88;13.88;;;17.60;99.90;;;;;;4173284;28;20029;-60
2023/10/10 00:48:00;;;;;;;19.88;12.88;;;17.60;99.90;;;;;;4173614;28;20032;-60
2023/10/10 00:50:02;;;;;;;17.90;13.25;;;17.50;99.90;;;;;;4176337;28;20036;-60
2023/10/10 00:52:06;;;;;;;20.03;13.23;;;17.50;99.90;;;;;;4175129;28;20128;-60
2023/10/10 00:56:22;;;;;;;21.85;13.80;;;17.50;99.90;;;;;;4172778;28;20057;-62
2023/10/10 00:58:46;;;;;;;22.42;13.55;;;17.40;99.90;;;;;;4174142;28;20025;-60
2023/10/10 01:00:47;;;;;;;;;;;17.40;99.90;;;;;;4176383;28;20040;-60
2023/10/10 01:03:00;;;;;;;19.60;13.23;;;17.40;99.90;;;;;;4174309;28;19948;-62
2023/10/10 01:05:12;;;;;;;20.58;12.57;;;17.40;99.90;;;;;;4171633;28;20033;-60
2023/10/10 01:07:18;;;;;;;21.55;12.25;;;17.30;99.90;;;;;;4178208;28;20525;-60
2023/10/10 01:09:32;;;;;;;20.38;13.63;;;17.30;99.90;;;;;;4174732;28;20040;-60
2023/10/10 01:11:34;;;;;;;24.27;14.77;;;17.30;99.90;;;;;;4170919;28;20068;-60
2023/10/10 01:13:35;;;;;;;20.65;14.30;;;17.30;99.90;;;;;;4175489;28;20145;-60
2023/10/10 01:15:37;;;;;;;20.02;12.70;;;17.30;99.90;;;;;;4173386;28;20064;-60
2023/10/10 01:17:38;;;;;;;;;;;17.20;99.90;;;;;;4178587;28;20484;-60
2023/10/10 01:19:39;;;;;;;23.67;14.15;;;17.20;99.90;;;;;;4171987;28;20007;-60
2023/10/10 01:21:50;;;;;;;21.38;13.60;;;17.20;99.90;;;;;;4173911;28;20120;-60
2023/10/10 01:23:51;;;;;;;21.48;14.27;;;17.10;99.90;;;;;;4170436;28;20540;-60
2023/10/10 01:25:52;;;;;;;23.00;14.63;;;17.10;99.90;;;;;;4174033;28;20029;-60
2023/10/10 01:27:56;;;;;;;24.40;14.63;;;17.10;99.90;;;;;;4174017;28;20060;-62
2023/10/10 01:30:17;;;;;;;21.98;14.43;;;17.00;99.90;;;;;;4171939;28;20025;-59
2023/10/10 01:32:19;;;;;;;21.15;14.85;;;17.00;99.90;;;;;;4174588;28;20047;-60
2023/10/10 01:36:42;;;;;;;;;;;17.00;99.90;;;;;;4173833;28;20033;-60
2023/10/10 01:38:56;;;;;;;18.63;12.57;;;17.00;99.90;;;;;;4173535;28;19994;-60
2023/10/10 01:40:58;;;;;;;21.95;14.00;;;16.90;99.90;;;;;;4172606;28;20060;-59
2023/10/10 01:43:19;;;;;;;21.23;13.07;;;17.00;99.90;;;;;;4173913;28;20041;-61
2023/10/10 01:45:26;;;;;;;20.65;14.32;;;16.90;99.90;;;;;;4175066;28;20048;-61
2023/10/10 01:47:27;;;;;;;23.88;14.60;;;16.90;99.90;;;;;;4175570;28;20041;-62
2023/10/10 01:49:29;;;;;;;24.63;15.02;;;16.90;99.90;;;;;;4177487;28;20052;-61
2023/10/10 01:51:33;;;;;;;24.98;15.35;;;16.90;99.90;;;;;;4175598;28;20381;-62
2023/10/10 01:53:40;;;;;;;24.85;15.70;;;16.80;99.90;;;;;;4178482;28;20851;-68
2023/10/10 01:55:41;;;;;;;24.63;15.52;;;16.80;99.90;;;;;;4175532;28;20048;-68
2023/10/10 01:57:42;;;;;;;24.40;15.75;;;16.80;99.90;;;;;;4177525;28;20096;-68
2023/10/10 01:59:43;;;;;;;29.35;18.25;;;16.70;99.90;;;;;;4177586;28;20064;-69
2023/10/10 02:01:44;;;;;;;23.35;15.38;;;16.70;99.90;;;;;;4176796;28;20464;-68
2023/10/10 02:03:50;;;;;;;26.52;17.20;;;16.70;99.90;;;;;;4177525;28;20071;-68
2023/10/10 02:05:55;;;;;;;25.33;16.33;;;16.70;99.90;;;;;;4175968;28;20516;-67
2023/10/10 02:07:57;;;;;;;29.27;17.80;;;16.60;99.90;;;;;;4176638;28;20037;-68
2023/10/10 02:12:12;;;;;;;25.98;16.83;;;16.50;99.90;;;;;;4176501;28;20049;-68
2023/10/10 02:14:12;;;;;;;27.25;17.05;;;16.50;99.90;;;;;;4175626;28;20029;-68
2023/10/10 02:16:17;;;;;;;25.60;15.90;;;16.50;99.90;;;;;;4172683;28;20144;-68
2023/10/10 02:18:23;;;;;;;27.48;17.08;;;16.50;99.90;;;;;;4175941;28;20075;-68
2023/10/10 02:22:33;;;;;;;25.95;15.98;;;16.50;99.90;;;;;;4171909;28;20075;-68
2023/10/10 02:26:37;;;;;;;28.15;17.77;;;16.50;99.90;;;;;;4172424;28;20052;-68
2023/10/10 02:28:47;;;;;;;25.02;16.35;;;16.40;99.90;;;;;;4175371;28;20479;-68
2023/10/10 02:30:52;;;;;;;28.23;17.35;;;16.40;99.90;;;;;;4174466;28;20114;-68
2023/10/10 02:32:57;;;;;;;29.67;17.80;;;16.40;99.90;;;;;;4176255;28;20032;-68
2023/10/10 02:35:26;;;;;;;27.30;16.92;;;16.40;99.90;;;;;;4172471;28;20209;-68
2023/10/10 02:39:26;;;;;;;24.38;17.08;;;16.30;99.90;;;;;;4177882;28;20032;-68
2023/10/10 02:41:38;;;;;;;25.33;17.17;;;16.30;99.90;;;;;;4173368;28;20034;-68
2023/10/10 02:46:18;;;;;;;32.88;19.92;;;16.30;99.90;;;;;;4124110;28;20410;-68
2023/10/10 02:48:21;;;;;;;27.77;18.17;;;16.20;99.90;;;;;;4161365;28;20182;-68
2023/10/10 02:50:41;;;;;;;25.38;17.25;;;16.20;99.90;;;;;;4174205;28;20413;-67
2023/10/10 02:52:48;;;;;;;28.92;17.80;;;16.20;99.90;;;;;;4175973;28;20037;-68
2023/10/10 02:54:54;;;;;;;26.38;16.83;;;16.20;99.90;;;;;;4175793;28;20068;-68
2023/10/10 02:56:57;;;;;;;29.35;18.13;;;16.20;99.90;;;;;;4174421;28;20045;-67
2023/10/10 02:58:57;;;;;;;25.25;16.42;;;16.20;99.90;;;;;;4177205;28;20040;-68
2023/10/10 03:00:58;;;;;;;26.90;16.23;;;16.20;99.90;;;;;;4174529;28;20445;-68
2023/10/10 03:02:59;;;;;;;25.02;16.08;;;16.20;99.90;;;;;;4176664;28;20045;-61
2023/10/10 03:07:05;;;;;;;29.38;18.05;;;16.20;99.90;;;;;;4176417;28;20041;-60
2023/10/10 03:09:38;;;;;;;27.70;17.92;;;16.20;99.90;;;;;;4175677;28;20048;-61
2023/10/10 03:11:35;;;;;;;27.10;17.23;;;16.20;99.90;;;;;;4174167;28;20047;-61
2023/10/10 03:13:47;;;;;;;25.05;16.48;;;16.20;99.90;;;;;;4174830;28;20106;-61
2023/10/10 03:15:54;;;;;;;27.08;16.52;;;16.20;99.90;;;;;;4180307;28;20064;-60
2023/10/10 03:20:13;;;;;;;23.65;15.10;;;16.20;99.90;;;;;;4177388;28;20415;-61
2023/10/10 03:22:31;;;;;;;25.30;15.10;;;16.20;99.90;;;;;;4177944;28;20151;-60
2023/10/10 03:24:50;;;;;;;21.38;15.20;;;16.20;99.90;;;;;;4175650;28;20268;-61
2023/10/10 03:26:52;;;;;;;25.05;16.35;;;16.20;99.90;;;;;;4174242;28;20078;-62
2023/10/10 03:29:03;;;;;;;25.38;16.25;;;16.20;99.90;;;;;;4177273;28;20060;-61
2023/10/10 03:33:44;;;;;;;23.15;15.40;;;16.20;99.90;;;;;;4175897;28;20037;-60
2023/10/10 03:36:05;;;;;;;21.92;13.85;;;16.20;99.90;;;;;;4175753;28;20044;-60
2023/10/10 03:38:27;;;;;;;26.17;15.63;;;16.20;99.90;;;;;;4175616;28;20044;-60
2023/10/10 03:40:47;;;;;;;24.92;16.27;;;16.20;99.90;;;;;;4172029;28;20487;-61
2023/10/10 05:25:23;;;;;;;27.75;16.50;;;15.40;99.90;;;;;;4159141;28;20034;-62
2023/10/10 05:27:29;;;;;;;22.48;15.68;;;15.50;99.90;;;;;;4146778;28;20148;-62
2023/10/10 05:29:33;;;;;;;24.13;15.43;;;15.40;99.90;;;;;;4161817;28;20610;-62
2023/10/10 05:31:35;;;;;;;23.27;14.82;;;15.40;99.90;;;;;;4162960;28;20116;-63
2023/10/10 05:33:36;;;;;;;19.80;13.65;;;15.40;99.90;;;;;;4177197;28;20498;-63
2023/10/10 05:35:39;;;;;;;23.48;14.27;;;15.40;99.90;;;;;;4189539;28;20048;-62
2023/10/10 05:37:40;;;;;;;23.77;15.82;;;15.40;99.90;;;;;;4176365;28;20032;-62
2023/10/10 05:39:41;;;;;;;24.50;15.05;;;15.40;99.90;;;;;;4180612;28;20075;-62
2023/10/10 05:41:41;;;;;;;26.27;15.57;;;15.40;99.90;;;;;;4178829;28;20033;-63
2023/10/10 05:43:43;;;;;;;22.50;14.77;;;15.30;99.90;;;;;;4185575;28;20082;-63
2023/10/10 05:45:45;;;;;;;23.33;13.93;;;15.30;99.90;;;;;;4185563;28;20067;-63
2023/10/10 05:47:46;;;;;;;29.10;15.18;;;15.30;99.90;;;;;;4178857;28;20037;-62
2023/10/10 05:49:48;;;;;;;24.42;14.98;;;15.30;99.90;;;;;;4185873;28;20032;-63
2023/10/10 05:51:48;;;;;;;24.20;14.55;;;15.30;99.90;;;;;;4175594;28;20405;-62
2023/10/10 05:53:49;;;;;;;25.20;14.77;;;15.30;99.90;;;;;;4184743;28;20052;-62
2023/10/10 05:55:54;;;;;;;27.13;15.60;;;15.30;99.90;;;;;;4187120;28;20029;-62
2023/10/10 05:57:57;;;;;;;24.50;15.10;;;15.30;99.90;;;;;;4187686;28;20119;-62
2023/10/10 05:59:58;;;;;;;23.88;14.48;;;15.30;99.90;;;;;;4183294;28;20439;-63
2023/10/10 06:01:59;;;;;;;25.02;14.38;;;15.30;99.90;;;;;;4182484;28;20040;-62
2023/10/10 06:03:59;;;;;;;24.70;14.32;;;15.30;99.90;;;;;;4183833;28;20064;-63
2023/10/10 06:06:03;;;;;;;23.60;13.23;;;15.30;99.90;;;;;;4183888;28;20032;-62
2023/10/10 06:08:05;;;;;;;21.77;13.38;;;15.30;99.90;;;;;;4186227;28;20025;-62
2023/10/10 06:10:06;;;;;;;23.80;14.65;;;15.20;99.90;;;;;;4187923;28;20766;-62
2023/10/10 06:12:09;;;;;;;27.13;16.77;;;15.30;99.90;;;;;;4188462;28;20416;-61
2023/10/10 06:14:11;;;;;;;23.10;14.23;;;15.20;99.90;;;;;;4181684;28;20033;-62
2023/10/10 06:16:14;;;;;;;31.23;15.83;;;15.20;99.90;;;;;;4176854;28;20071;-62
2023/10/10 06:18:17;;;;;;;27.02;16.02;;;15.40;99.90;;;;;;4177432;28;20382;-60
2023/10/10 06:20:21;;;;;;;27.17;15.52;;;15.50;99.90;;;;;;4189562;28;20450;-64
2023/10/10 06:22:22;;;;;;;28.42;15.43;;;15.60;99.90;;;;;;4186662;28;20051;-65
2023/10/10 06:24:23;;;;;;;36.40;16.23;;;15.60;99.90;;;;;;4178858;28;20036;-65
2023/10/10 06:26:24;;;;;;;25.33;15.65;;;15.60;99.90;;;;;;4179656;28;20035;-66
2023/10/10 06:28:26;;;;;;;29.00;16.23;;;15.60;99.90;;;;;;4187517;28;20040;-69
2023/10/10 06:30:26;;;;;;;25.80;15.43;;;15.60;99.90;;;;;;4175021;28;20580;-70
2023/10/10 06:32:31;;;;;;;29.25;15.13;;;15.50;99.90;;;;;;4185809;28;20029;-59
2023/10/10 06:34:36;;;;;;;42.50;17.90;;;15.60;99.90;;;;;;4180697;28;20040;-59
2023/10/10 06:36:37;;;;;;;28.67;15.60;;;15.60;99.90;;;;;;4182881;28;20047;-55
2023/10/10 06:38:41;;;;;;;26.80;15.43;;;15.60;99.90;;;;;;4178199;28;20052;-58
2023/10/10 06:40:52;;;;;;;23.90;14.07;;;16.00;99.90;;;;;;4177054;28;20029;-54
2023/10/10 06:42:55;;;;;;;24.77;14.27;;;16.10;99.90;;;;;;4187485;28;20444;-57
2023/10/10 06:45:07;;;;;;;41.05;14.45;;;16.10;99.90;;;;;;4183468;28;20041;-58
2023/10/10 06:47:11;;;;;;;22.55;13.30;;;16.20;99.90;;;;;;4158166;28;20095;-58
2023/10/10 06:49:12;;;;;;;22.08;12.65;;;16.30;99.90;;;;;;4181471;28;20041;-59
2023/10/10 06:51:15;;;;;;;32.30;14.43;;;16.30;99.90;;;;;;4187912;28;20037;-60
2023/10/10 06:53:34;;;;;;;27.15;14.30;;;16.40;99.90;;;;;;4186907;28;20041;-60
2023/10/10 06:55:38;;;;;;;27.60;15.27;;;16.70;99.90;;;;;;4185501;28;20477;-61
2023/10/10 06:57:40;;;;;;;32.75;14.23;;;16.80;99.90;;;;;;4179787;28;20060;-61
2023/10/10 06:59:41;;;;;;;49.60;17.20;;;16.80;99.90;;;;;;4185321;28;20041;-62
2023/10/10 07:01:45;;;;;;;29.95;14.60;;;16.80;99.90;;;;;;4185173;28;20059;-61
2023/10/10 07:03:54;;;;;;;29.20;13.63;;;16.70;99.90;;;;;;4183853;28;20405;-61
2023/10/10 07:05:54;;;;;;;22.13;12.55;;;16.60;99.90;;;;;;4194280;28;20268;-61
2023/10/10 07:07:58;;;;;;;21.35;12.30;;;16.50;99.90;;;;;;4184607;28;20408;-60
2023/10/10 07:09:59;;;;;;;40.38;15.68;;;16.50;99.90;;;;;;4177006;28;20486;-61
2023/10/10 07:12:15;;;;;;;21.67;12.75;;;16.50;99.90;;;;;;4187214;28;20044;-62
2023/10/10 07:14:16;;;;;;;22.13;12.57;;;16.50;99.90;;;;;;4184828;28;20036;-61
2023/10/10 07:16:16;;;;;;;20.83;12.02;;;16.50;99.90;;;;;;4181774;28;20068;-61
2023/10/10 07:18:24;;;;;;;21.42;12.50;;;16.60;99.90;;;;;;4187386;28;20151;-61
2023/10/10 07:22:26;;;;;;;23.98;13.23;;;16.70;99.90;;;;;;4187315;28;20122;-61
2023/10/10 07:24:40;;;;;;;22.45;12.63;;;16.70;99.90;;;;;;4183956;28;20128;-61
2023/10/10 07:26:42;;;;;;;23.58;12.68;;;16.70;99.90;;;;;;4180887;28;20119;-61
2023/10/10 07:28:48;;;;;;;19.15;12.35;;;16.70;99.90;;;;;;4185834;28;20174;-61
2023/10/10 07:30:50;;;;;;;17.52;11.25;;;16.80;99.90;;;;;;4175437;28;20044;-61
2023/10/10 07:32:51;;;;;;;19.02;11.25;;;16.70;99.90;;;;;;4183988;28;20046;-61
2023/10/10 07:34:52;;;;;;;22.98;10.93;;;16.80;99.90;;;;;;4181929;28;20390;-60
2023/10/10 07:36:52;;;;;;;24.17;13.98;;;16.80;99.90;;;;;;4184746;28;20051;-61
2023/10/10 07:38:54;;;;;;;19.92;10.88;;;16.90;99.90;;;;;;4182335;28;20389;-61
2023/10/10 07:40:55;;;;;;;21.95;12.35;;;16.90;99.90;;;;;;4182587;28;20036;-61
2023/10/10 07:42:59;;;;;;;18.58;11.00;;;17.10;99.90;;;;;;4182221;28;20048;-62
2023/10/10 07:45:13;;;;;;;19.05;11.25;;;17.20;99.90;;;;;;4187972;28;20119;-64
2023/10/10 07:47:25;;;;;;;19.92;11.25;;;17.30;99.90;;;;;;4171584;28;20516;-62
2023/10/10 07:49:27;;;;;;;16.02;9.82;;;17.40;99.90;;;;;;4173204;28;20032;-62
2023/10/10 07:51:28;;;;;;;17.70;10.20;;;17.50;99.90;;;;;;4171731;28;20033;-62
2023/10/10 07:53:34;;;;;;;17.42;9.98;;;17.50;99.90;;;;;;4176946;28;20041;-62
2023/10/10 07:55:52;;;;;;;19.13;9.52;;;17.60;99.90;;;;;;4174127;28;20037;-61
2023/10/10 07:57:55;;;;;;;18.98;10.30;;;17.70;99.90;;;;;;4175276;28;20071;-61
2023/10/10 07:59:58;;;;;;;18.80;10.25;;;17.70;99.90;;;;;;4176755;28;20033;-61
2023/10/10 08:01:59;;;;;;;;;;;17.80;99.90;;;;;;4173934;28;20079;-61
2023/10/10 08:04:04;;;;;;;17.55;9.40;;;17.80;99.90;;;;;;4175649;28;20011;-63
2023/10/10 08:06:08;;;;;;;19.27;9.48;;;17.90;99.90;;;;;;4172317;28;20484;-61
2023/10/10 08:08:13;;;;;;;18.92;9.88;;;17.90;99.90;;;;;;4175945;28;20039;-61
2023/10/10 08:10:16;;;;;;;19.92;10.05;;;17.90;99.90;;;;;;4174391;28;20037;-61
2023/10/10 08:12:18;;;;;;;16.48;9.48;;;18.10;99.90;;;;;;4176023;28;20443;-61
2023/10/10 08:14:21;;;;;;;21.98;9.73;;;18.10;99.90;;;;;;4176759;28;21673;-61
2023/10/10 08:16:25;;;;;;;16.52;8.85;;;18.10;99.90;;;;;;4172406;28;20053;-61
2023/10/10 08:18:52;;;;;;;14.13;8.40;;;18.10;99.90;;;;;;4169851;28;20090;-61
2023/10/10 08:22:59;;;;;;;18.00;8.27;;;18.40;99.90;;;;;;4171522;28;20044;-61
2023/10/10 08:25:00;;;;;;;18.20;9.02;;;18.50;99.90;;;;;;4170173;28;20471;-62
2023/10/10 08:27:09;;;;;;;16.83;8.35;;;18.60;99.90;;;;;;4173245;28;20033;-61
2023/10/10 08:29:14;;;;;;;12.75;7.22;;;18.60;99.90;;;;;;4176371;28;20037;-61
2023/10/10 08:31:15;;;;;;;14.88;8.15;;;18.80;99.90;;;;;;4173487;28;20048;-61
2023/10/10 08:33:16;;;;;;;17.80;7.57;;;18.80;99.90;;;;;;4173926;28;20060;-61
2023/10/10 08:35:17;;;;;;;12.52;7.10;;;18.90;99.90;;;;;;4168645;28;20272;-61
2023/10/10 08:37:17;;;;;;;15.35;7.50;;;19.10;99.90;;;;;;4175997;28;20033;-61
2023/10/10 08:39:25;;;;;;;12.63;6.80;;;19.10;99.90;;;;;;4179348;28;20029;-61
2023/10/10 08:41:28;;;;;;;11.82;6.88;;;19.20;99.90;;;;;;4171360;28;20038;-61
2023/10/10 08:43:31;;;;;;;16.48;7.18;;;19.30;99.90;;;;;;4173984;28;20036;-61
2023/10/10 08:45:39;;;;;;;13.95;7.13;;;19.30;99.90;;;;;;4174349;28;20087;-61
2023/10/10 08:47:42;;;;;;;12.05;7.00;;;19.40;99.90;;;;;;4169815;28;20045;-61
2023/10/10 08:49:47;;;;;;;10.50;6.13;;;19.50;99.90;;;;;;4187969;28;20051;-61
2023/10/10 08:51:52;;;;;;;15.85;6.95;;;19.60;99.90;;;;;;4175383;28;20102;-67
2023/10/10 08:53:53;;;;;;;15.13;7.68;;;19.70;99.90;;;;;;4173752;28;20491;-69
2023/10/10 08:55:57;;;;;;;13.30;7.00;;;19.80;99.90;;;;;;4174472;28;20037;-70
2023/10/10 08:57:57;;;;;;;15.82;7.97;;;19.90;99.90;;;;;;4176157;28;20120;-70
2023/10/10 08:59:59;;;;;;;11.45;6.78;;;19.90;99.90;;;;;;4179207;28;20428;-70
2023/10/10 09:02:12;;;;;;;14.40;7.18;;;19.90;99.90;;;;;;4165123;28;20044;-70
2023/10/10 09:04:19;;;;;;;11.18;6.13;;;19.90;99.90;;;;;;4172163;28;20108;-69
2023/10/10 09:06:20;;;;;;;11.48;6.55;;;20.00;99.90;;;;;;4174862;28;20064;-70
2023/10/10 09:08:26;;;;;;;25.85;9.25;;;19.90;99.90;;;;;;4178364;28;20051;-69
2023/10/10 09:10:39;;;;;;;13.77;6.75;;;19.90;99.90;;;;;;4173119;28;20112;-69
2023/10/10 09:12:56;;;;;;;14.95;7.15;;;20.00;99.90;;;;;;4175594;28;20044;-69
2023/10/10 09:14:57;;;;;;;16.10;6.93;;;19.90;99.90;;;;;;4175930;28;20030;-69
2023/10/10 09:16:58;;;;;;;11.95;6.80;;;19.90;99.90;;;;;;4174052;28;20124;-69
2023/10/10 09:19:08;;;;;;;15.45;7.90;;;19.90;99.90;;;;;;4175206;28;20496;-69
2023/10/10 09:21:18;;;;;;;13.00;6.97;;;19.90;99.90;;;;;;4166610;28;20535;-69
2023/10/10 09:23:23;;;;;;;13.20;6.75;;;19.90;99.90;;;;;;4160651;28;20040;-69
2023/10/10 09:25:26;;;;;;;19.23;7.90;;;19.90;99.90;;;;;;4177393;28;20048;-69
2023/10/10 09:27:35;;;;;;;12.25;6.13;;;20.00;99.90;;;;;;4179039;28;20033;-69
2023/10/10 09:29:43;;;;;;;10.30;6.35;;;20.00;99.90;;;;;;4181378;28;20047;-69
2023/10/10 09:31:45;;;;;;;15.93;6.80;;;20.00;99.90;;;;;;4185438;28;20068;-69
2023/10/10 09:33:47;;;;;;;16.25;7.15;;;20.10;99.90;;;;;;4179828;28;20086;-69
2023/10/10 09:35:58;;;;;;;14.90;7.00;;;20.00;99.90;;;;;;4180466;28;20059;-69
2023/10/10 09:38:00;;;;;;;18.35;7.47;;;20.00;99.90;;;;;;4185686;28;20466;-69
2023/10/10 09:40:15;;;;;;;15.93;6.38;;;20.00;99.90;;;;;;4175758;28;20044;-69
2023/10/10 09:42:27;;;;;;;13.43;6.60;;;20.00;99.90;;;;;;4182080;28;20439;-69
2023/10/10 09:49:28;;;;;;;13.57;7.03;;;20.20;99.90;;;;;;4157886;28;20057;-68
2023/10/10 09:52:47;;;;;;;14.23;6.80;;;20.30;99.90;;;;;;4158921;28;21321;-69
2023/10/10 09:53:56;;;;;;;21.02;7.25;;;20.30;99.90;;;;;;4159095;28;20041;-69
2023/10/10 09:56:08;;;;;;;12.65;6.22;;;20.30;99.90;;;;;;4158279;28;20030;-67
2023/10/10 09:58:24;;;;;;;22.33;6.20;;;20.30;99.90;;;;;;4154698;28;20493;-68
2023/10/10 10:00:44;;;;;;;13.55;6.55;;;20.40;99.90;;;;;;4157161;28;20057;-68
2023/10/10 10:02:49;;;;;;;15.18;7.20;;;20.30;99.90;;;;;;4156776;28;20058;-69
2023/10/10 10:04:53;;;;;;;18.42;7.45;;;20.40;99.90;;;;;;4158925;28;20097;-69
2023/10/10 10:07:19;;;;;;;20.60;7.35;;;20.30;99.90;;;;;;4159384;28;20029;-68
2023/10/10 10:09:32;;;;;;;15.93;6.38;;;20.40;99.90;;;;;;4162059;28;20037;-69
2023/10/10 10:11:43;;;;;;;13.32;6.15;;;20.40;99.90;;;;;;4160917;28;20526;-69
2023/10/10 10:14:14;;;;;;;11.23;6.28;;;20.40;99.90;;;;;;4161951;28;20437;-68
2023/10/10 10:16:29;;;;;;;11.02;6.03;;;20.50;99.90;;;;;;4156870;28;20164;-69
2023/10/10 10:18:44;;;;;;;11.13;5.75;;;20.50;99.90;;;;;;4161847;28;20037;-69
2023/10/10 10:20:49;;;;;;;10.75;5.22;;;20.50;99.90;;;;;;4158954;28;20113;-69
2023/10/10 10:23:00;;;;;;;11.10;5.45;;;20.50;99.90;;;;;;4161644;28;20041;-69
2023/10/10 10:25:25;;;;;;;11.27;5.50;;;20.60;99.90;;;;;;4161985;28;20041;-69
2023/10/10 10:27:35;;;;;;;9.95;5.18;;;20.70;99.90;;;;;;4160088;28;20030;-68
2023/10/10 10:29:37;;;;;;;10.90;5.30;;;20.80;99.90;;;;;;4161580;28;20045;-69
2023/10/10 10:31:37;;;;;;;10.77;5.07;;;20.70;99.90;;;;;;4159871;28;20080;-68
2023/10/10 10:33:52;;;;;;;13.52;5.15;;;20.80;99.90;;;;;;4161974;28;20038;-69
2023/10/10 10:36:06;;;;;;;9.73;4.60;;;20.90;99.90;;;;;;4159579;28;20032;-69
2023/10/10 10:38:08;;;;;;;8.50;4.55;;;20.90;99.90;;;;;;4160960;28;20484;-68
2023/10/10 10:42:12;;;;;;;9.00;5.15;;;21.00;99.90;;;;;;4164205;28;20784;-69
2023/10/10 10:46:56;;;;;;;14.48;4.80;;;21.20;99.90;;;;;;4176131;28;20095;-68
2023/10/10 10:49:05;;;;;;;9.63;5.38;;;21.20;99.90;;;;;;4161269;28;20045;-68
2023/10/10 10:51:22;;;;;;;10.07;5.50;;;21.20;99.90;;;;;;4159913;28;20033;-69
2023/10/10 10:53:33;;;;;;;8.88;4.88;;;21.30;99.90;;;;;;4160346;28;20075;-69
2023/10/10 10:55:52;;;;;;;9.52;4.82;;;21.30;99.90;;;;;;4159890;28;20033;-69
2023/10/10 10:58:05;;;;;;;8.75;4.60;;;21.40;99.90;;;;;;4161115;28;20065;-69
2023/10/10 11:00:19;;;;;;;11.23;5.53;;;21.40;99.90;;;;;;4159008;28;20498;-68
2023/10/10 11:02:31;;;;;;;9.50;4.28;;;21.50;99.90;;;;;;4163313;28;20099;-69
2023/10/10 11:06:32;;;;;;;7.72;4.45;;;21.60;99.90;;;;;;4158944;28;20042;-67
2023/10/10 11:13:28;;;;;;;9.70;4.88;;;21.80;99.90;;;;;;4159451;28;20061;-58
2023/10/10 11:15:37;;;;;;;8.60;4.93;;;21.80;99.90;;;;;;4157077;28;20444;-58
2023/10/10 11:17:38;;;;;;;23.65;7.22;;;21.80;99.90;;;;;;4160725;28;20106;-57
2023/10/10 11:19:39;;;;;;;26.10;5.72;;;21.80;99.90;;;;;;4159729;28;20673;-58
2023/10/10 11:21:47;;;;;;;10.60;5.10;;;21.80;99.90;;;;;;4158219;28;20057;-58
2023/10/10 11:23:48;;;;;;;15.43;5.53;;;21.80;99.90;;;;;;4160579;28;20129;-58
2023/10/10 11:26:00;;;;;;;16.25;5.72;;;21.80;99.90;;;;;;4159758;28;20156;-58
2023/10/10 11:28:04;;;;;;;17.33;5.18;;;21.90;99.90;;;;;;4160903;28;20033;-58
2023/10/10 11:30:08;;;;;;;9.32;4.47;;;21.90;99.90;;;;;;4159428;28;20038;-63
2023/10/10 11:32:12;;;;;;;9.73;5.13;;;21.90;99.90;;;;;;4155711;28;20060;-57
2023/10/10 11:34:27;;;;;;;22.08;5.53;;;22.00;99.90;;;;;;4159459;28;20046;-58
2023/10/10 11:36:37;;;;;;;11.38;5.32;;;22.00;99.90;;;;;;4159960;28;20099;-57
2023/10/10 11:38:39;;;;;;;9.98;4.50;;;22.00;99.90;;;;;;4160112;28;20087;-58
2023/10/10 11:40:40;;;;;;;9.65;4.78;;;22.10;99.90;;;;;;4158197;28;20168;-58
2023/10/10 11:42:47;;;;;;;10.98;4.45;;;22.10;99.90;;;;;;4160554;28;20061;-58
2023/10/10 11:44:53;;;;;;;8.75;5.30;;;22.20;99.90;;;;;;4160707;28;20124;-58
2023/10/10 11:47:05;;;;;;;8.60;5.00;;;22.20;99.90;;;;;;4159235;28;20135;-58
2023/10/10 11:49:15;;;;;;;9.25;4.75;;;22.20;99.90;;;;;;4160552;28;20466;-58
2023/10/10 11:51:32;;;;;;;8.35;4.57;;;22.20;99.90;;;;;;4151119;28;20379;-59
2023/10/10 11:53:36;;;;;;;9.35;4.85;;;22.20;99.90;;;;;;4159899;28;20052;-61
2023/10/10 11:55:39;;;;;;;10.82;5.05;;;22.30;99.90;;;;;;4154187;28;20064;-58
2023/10/10 11:57:41;;;;;;;8.68;4.55;;;22.30;99.90;;;;;;4160445;28;20060;-58
2023/10/10 11:59:44;;;;;;;9.25;4.70;;;22.30;99.90;;;;;;4159801;28;20484;-67
2023/10/10 12:01:49;;;;;;;11.75;4.70;;;22.30;99.90;;;;;;4158878;28;20449;-66
2023/10/10 12:04:00;;;;;;;8.48;4.60;;;22.40;99.90;;;;;;4176723;28;20068;-66
2023/10/10 12:06:01;;;;;;;11.68;4.50;;;22.40;99.90;;;;;;4173575;28;20089;-65
2023/10/10 12:08:05;;;;;;;8.13;4.65;;;22.50;99.90;;;;;;4176838;28;20064;-65
2023/10/10 12:10:07;;;;;;;9.75;4.80;;;22.50;99.90;;;;;;4175433;28;20029;-66
2023/10/10 12:12:09;;;;;;;8.75;4.68;;;22.50;99.90;;;;;;4174480;28;20120;-66
2023/10/10 12:14:12;;;;;;;8.60;4.40;;;22.50;99.90;;;;;;4175015;28;20032;-66
2023/10/10 12:16:17;;;;;;;7.75;4.10;;;22.60;99.90;;;;;;4174493;28;20044;-66
2023/10/10 12:18:18;;;;;;;7.93;4.05;;;22.60;99.90;;;;;;4175278;28;20068;-66
2023/10/10 12:20:18;;;;;;;7.03;4.55;;;22.60;99.90;;;;;;4175123;28;20040;-66
2023/10/10 12:22:19;;;;;;;8.82;4.55;;;22.70;99.90;;;;;;4176337;28;20040;-66
2023/10/10 12:24:19;;;;;;;9.35;4.45;;;22.70;99.90;;;;;;4177576;28;20477;-66
2023/10/10 12:26:22;;;;;;;8.93;4.22;;;22.70;99.90;;;;;;4173873;28;20116;-70
2023/10/10 12:28:24;;;;;;;7.70;4.05;;;22.70;99.90;;;;;;4175715;28;20524;-70
2023/10/10 12:30:25;;;;;;;;;;;22.80;99.90;;;;;;4175657;28;20110;-70
2023/10/10 12:32:26;;;;;;;7.10;4.13;;;22.80;99.90;;;;;;4176483;28;19913;-81
2023/10/10 12:34:27;;;;;;;13.32;5.05;;;22.80;99.90;;;;;;4180197;28;20025;-81
2023/10/10 12:36:32;;;;;;;8.25;4.25;;;22.80;99.90;;;;;;4178503;28;20499;-81
2023/10/10 12:38:33;;;;;;;12.90;4.80;;;22.80;99.90;;;;;;4173147;28;20033;-81
2023/10/10 12:40:34;;;;;;;8.82;4.85;;;22.80;99.90;;;;;;4174854;28;20448;-79
2023/10/10 12:42:35;;;;;;;9.73;4.60;;;22.80;99.90;;;;;;4174503;28;20401;-81
2023/10/10 12:44:36;;;;;;;10.23;4.57;;;22.80;99.90;;;;;;4176031;28;20040;-81
2023/10/10 12:46:36;;;;;;;8.90;4.32;;;22.80;99.90;;;;;;4175317;28;20116;-81
2023/10/10 12:48:39;;;;;;;10.05;4.78;;;22.90;99.90;;;;;;4177217;28;20029;-79
2023/10/10 12:50:46;;;;;;;7.90;4.60;;;22.90;99.90;;;;;;4173422;28;20048;-79
2023/10/10 12:52:56;;;;;;;10.70;4.55;;;22.90;99.90;;;;;;4173813;28;20033;-79
2023/10/10 12:54:57;;;;;;;11.15;4.47;;;22.90;99.90;;;;;;4158060;28;20412;-79
2023/10/10 12:57:02;;;;;;;11.88;5.15;;;22.90;99.90;;;;;;4174618;28;20037;-80
2023/10/10 12:59:03;;;;;;;9.60;4.65;;;23.00;99.90;;;;;;4175609;28;20029;-79
2023/10/10 13:01:05;;;;;;;16.58;4.97;;;23.00;99.90;;;;;;4171540;28;20041;-78
2023/10/10 13:03:07;;;;;;;12.35;4.75;;;23.00;99.90;;;;;;4175654;28;20481;-80
2023/10/10 13:05:07;;;;;;;12.75;5.43;;;23.00;99.90;;;;;;4175931;28;20424;-79
2023/10/10 13:07:08;;;;;;;9.25;4.97;;;23.00;99.90;;;;;;4172820;28;20033;-78
2023/10/10 13:09:14;;;;;;;7.45;4.65;;;23.00;99.90;;;;;;4173299;28;20044;-72